Боровцы

Карта отелей и гостиниц, располагающихся рядом с аэропортом Боровцы :

Боровцы Витебская область 55° 36' 31.4388" N, 28° 40' 42.42" E
Боровцы Витебская область 55° 36' 31.4388" N, 28° 40' 42.42" E
Код аэродрома ИКАО
UMWB
Код аэродрома RU
УМВБ
Координаты
N55.60873° E028.67845°
Превышение над уровнем моря
141
Основная полоса
10/28
Курс магнитный
097,6/277,6
Длина основной ВПП
2500
Ширина основной ВПП
45
Покрытие основной ВПП
Твёрдое (бетон)
Освещение ВПП
Нет
Тип: 
Аэродром
Класс аэродрома: 
Принадлежность: 
МО
Статус: 
Действующий
Сайт: 
http://vsr.mil.by/2013/03/01/aerodrom-postoyannoj-gotovnosti/
E-mail аэродрома: 
Страна: 
Беларусь
Регион: 
Витебская область
Город: 
Дополнительная информация: 
Военный индекс: XMWW / ЬМВВ.


Найти трансфер

С помощью этой формы Вы можете найти трансфер из аэропорта Боровцы в город, аэропорт или вокзал:

Погода в аэропортах:

Авиационная погода в Ивало

Регион: 
Погода METAR: 
EFIV 212250Z AUTO 11003KT 9999 -RA FEW016 BKN035 07/06 Q1011
Время наблюдения
2022-05-21T22:50:00Z
Температура C
7.0
Точка росы
6.0
Направление ветра
110
Скорость ветра (узлы)
3
Метео видимость
6.21
Облачность
FEW
BKN
Нижняя граница облачности (футы)
1600
3500
Явления погоды
-RA
Условия полета
VFR
FEW – незначительная облачность; BKN – значительная (рассеянная, разорванная) облачность;
-RA - слабый дождь;

Авиационная погода в Волгограде

Регион: 
Погода METAR: 
URWW 212300Z 19004MPS 9000 -RA OVC005 11/11 Q1003 R24/290060 TEMPO 1000 TSRAGR BKN020CB RMK OBST OBSC
Время наблюдения
2022-05-21T23:00:00Z
Температура C
11.0
Точка росы
11.0
Направление ветра
190
Скорость ветра (узлы)
8
Метео видимость
5.59
Облачность
OVC
Нижняя граница облачности (футы)
500
Явления погоды
-RA
Условия полета
IFR
Аэропорт подробнее: 
OVC – сплошная облачность;
-RA - слабый дождь;

Авиационная погода в Рощино

Регион: 
Погода METAR: 
USTR 212300Z 17005MPS 9999 -SHRA BKN016CB 09/08 Q0989 R21/290060 R30/////99 TEMPO 2100 -SHRA BR BKN004 BKN016CB
Время наблюдения
2022-05-21T23:00:00Z
Температура C
9.0
Точка росы
8.0
Направление ветра
170
Скорость ветра (узлы)
10
Метео видимость
6.21
Облачность
BKN
Нижняя граница облачности (футы)
1600
Явления погоды
-SHRA
Условия полета
MVFR
Аэропорт подробнее: 
BKN – значительная (рассеянная, разорванная) облачность;
-SHRA - слабый ливневой дождь;

Авиационная погода в Берлевоге

Регион: 
Погода METAR: 
ENBV 212250Z AUTO 11010KT 9999 -RA FEW009 BKN036 OVC046 04/02 Q1013
Время наблюдения
2022-05-21T22:50:00Z
Температура C
4.0
Точка росы
2.0
Направление ветра
110
Скорость ветра (узлы)
10
Метео видимость
6.21
Облачность
FEW
BKN
OVC
Нижняя граница облачности (футы)
900
3600
4600
Явления погоды
-RA
Условия полета
VFR
FEW – незначительная облачность; BKN – значительная (рассеянная, разорванная) облачность; OVC – сплошная облачность;
-RA - слабый дождь;